sensor_id;sensor_type;location;lat;lon;timestamp;pressure;altitude;pressure_sealevel;temperature;humidity
27864;BME280;15980;51.092;13.916;2023-03-21T00:02:54;98729.72;;;9.47;97.97
27864;BME280;15980;51.092;13.916;2023-03-21T00:12:55;98735.53;;;9.45;98.35
27864;BME280;15980;51.092;13.916;2023-03-21T00:22:55;98744.19;;;9.27;99.03
27864;BME280;15980;51.092;13.916;2023-03-21T00:32:55;98738.72;;;9.27;99.53
27864;BME280;15980;51.092;13.916;2023-03-21T00:42:56;98729.75;;;9.09;98.99
27864;BME280;15980;51.092;13.916;2023-03-21T00:52:56;98736.09;;;9.01;99.11
27864;BME280;15980;51.092;13.916;2023-03-21T01:02:56;98718.38;;;8.98;99.11
27864;BME280;15980;51.092;13.916;2023-03-21T01:12:57;98722.78;;;8.91;97.56
27864;BME280;15980;51.092;13.916;2023-03-21T01:22:57;98725.69;;;8.86;98.11
27864;BME280;15980;51.092;13.916;2023-03-21T01:32:57;98725.72;;;8.77;97.61
27864;BME280;15980;51.092;13.916;2023-03-21T01:42:58;98716.75;;;8.59;96.20
27864;BME280;15980;51.092;13.916;2023-03-21T01:52:59;98716.81;;;8.42;96.17
27864;BME280;15980;51.092;13.916;2023-03-21T02:03:02;98717.13;;;8.49;94.73
27864;BME280;15980;51.092;13.916;2023-03-21T02:13:05;98712.66;;;8.36;95.92
27864;BME280;15980;51.092;13.916;2023-03-21T02:34:11;98714.09;;;8.33;96.31
27864;BME280;15980;51.092;13.916;2023-03-21T02:44:23;98706.06;;;8.28;95.64
27864;BME280;15980;51.092;13.916;2023-03-21T02:54:28;98702.84;;;8.35;95.99
27864;BME280;15980;51.092;13.916;2023-03-21T03:04:30;98707.34;;;8.31;95.32
27864;BME280;15980;51.092;13.916;2023-03-21T03:24:54;98706.88;;;8.11;94.34
27864;BME280;15980;51.092;13.916;2023-03-21T03:34:55;98701.75;;;7.93;96.26
27864;BME280;15980;51.092;13.916;2023-03-21T03:44:57;98708.47;;;8.04;96.02
27864;BME280;15980;51.092;13.916;2023-03-21T03:54:58;98707.69;;;8.03;96.61
27864;BME280;15980;51.092;13.916;2023-03-21T04:04:58;98698.53;;;7.99;96.87
27864;BME280;15980;51.092;13.916;2023-03-21T04:14:58;98705.59;;;8.00;96.78
27864;BME280;15980;51.092;13.916;2023-03-21T04:24:59;98710.59;;;7.98;96.71
27864;BME280;15980;51.092;13.916;2023-03-21T04:34:59;98698.22;;;7.92;97.25
27864;BME280;15980;51.092;13.916;2023-03-21T04:45:00;98699.81;;;7.93;97.12
27864;BME280;15980;51.092;13.916;2023-03-21T04:55:00;98702.06;;;7.91;96.53
27864;BME280;15980;51.092;13.916;2023-03-21T05:05:01;98703.84;;;7.87;96.53
27864;BME280;15980;51.092;13.916;2023-03-21T05:15:02;98702.56;;;7.93;96.11
27864;BME280;15980;51.092;13.916;2023-03-21T05:25:02;98711.88;;;8.01;96.65
27864;BME280;15980;51.092;13.916;2023-03-21T05:35:03;98717.66;;;7.99;95.67
27864;BME280;15980;51.092;13.916;2023-03-21T05:45:04;98723.59;;;8.10;95.95
27864;BME280;15980;51.092;13.916;2023-03-21T05:55:04;98717.13;;;8.32;94.79
27864;BME280;15980;51.092;13.916;2023-03-21T06:05:05;98718.59;;;8.38;92.95
27864;BME280;15980;51.092;13.916;2023-03-21T06:15:06;98731.47;;;8.29;92.51
27864;BME280;15980;51.092;13.916;2023-03-21T06:25:07;98723.66;;;8.65;91.90
27864;BME280;15980;51.092;13.916;2023-03-21T06:35:07;98722.34;;;8.80;90.29
27864;BME280;15980;51.092;13.916;2023-03-21T06:45:08;98730.69;;;8.84;89.90
27864;BME280;15980;51.092;13.916;2023-03-21T06:55:08;98735.75;;;9.02;88.85
27864;BME280;15980;51.092;13.916;2023-03-21T07:05:09;98754.09;;;9.02;88.78
27864;BME280;15980;51.092;13.916;2023-03-21T07:15:09;98751.75;;;9.30;88.63
27864;BME280;15980;51.092;13.916;2023-03-21T07:25:10;98750.94;;;9.80;87.32
27864;BME280;15980;51.092;13.916;2023-03-21T07:35:12;98755.06;;;10.48;83.43
27864;BME280;15980;51.092;13.916;2023-03-21T07:45:13;98759.59;;;10.77;81.75
27864;BME280;15980;51.092;13.916;2023-03-21T07:55:14;98763.72;;;10.17;82.98
27864;BME280;15980;51.092;13.916;2023-03-21T08:05:14;98753.78;;;10.79;81.00
27864;BME280;15980;51.092;13.916;2023-03-21T08:15:15;98758.78;;;10.64;81.18
27864;BME280;15980;51.092;13.916;2023-03-21T08:25:17;98763.72;;;10.17;82.60
27864;BME280;15980;51.092;13.916;2023-03-21T08:35:18;98763.88;;;11.23;81.45
27864;BME280;15980;51.092;13.916;2023-03-21T08:45:18;98750.41;;;11.43;77.90
27864;BME280;15980;51.092;13.916;2023-03-21T08:55:19;98752.34;;;11.06;78.74
27864;BME280;15980;51.092;13.916;2023-03-21T09:05:19;98748.06;;;11.69;77.78
27864;BME280;15980;51.092;13.916;2023-03-21T09:15:22;98752.09;;;12.24;75.86
27864;BME280;15980;51.092;13.916;2023-03-21T09:25:23;98760.91;;;11.77;76.32
27864;BME280;15980;51.092;13.916;2023-03-21T09:35:23;98753.78;;;12.01;76.19
27864;BME280;15980;51.092;13.916;2023-03-21T09:45:35;98750.38;;;12.75;74.36
27864;BME280;15980;51.092;13.916;2023-03-21T09:55:39;98749.97;;;13.20;72.83
27864;BME280;15980;51.092;13.916;2023-03-21T10:05:40;98744.09;;;13.38;71.24
27864;BME280;15980;51.092;13.916;2023-03-21T10:15:42;98726.75;;;14.07;68.52
27864;BME280;15980;51.092;13.916;2023-03-21T10:25:50;98716.94;;;14.10;67.33
27864;BME280;15980;51.092;13.916;2023-03-21T10:36:07;98703.78;;;14.42;66.71
27864;BME280;15980;51.092;13.916;2023-03-21T10:46:19;98705.00;;;15.09;65.03
27864;BME280;15980;51.092;13.916;2023-03-21T10:56:24;98696.94;;;15.50;62.68
27864;BME280;15980;51.092;13.916;2023-03-21T11:06:28;98698.31;;;15.60;62.24
27864;BME280;15980;51.092;13.916;2023-03-21T11:16:36;98696.03;;;15.65;62.32
27864;BME280;15980;51.092;13.916;2023-03-21T11:26:37;98685.59;;;15.29;62.75
27864;BME280;15980;51.092;13.916;2023-03-21T11:36:38;98667.06;;;16.19;61.69
27864;BME280;15980;51.092;13.916;2023-03-21T11:46:39;98656.16;;;16.00;60.07
27864;BME280;15980;51.092;13.916;2023-03-21T11:56:46;98636.97;;;15.54;61.58
27864;BME280;15980;51.092;13.916;2023-03-21T12:38:16;98602.00;;;15.39;60.23
27864;BME280;15980;51.092;13.916;2023-03-21T12:48:24;98589.53;;;15.52;60.07
27864;BME280;15980;51.092;13.916;2023-03-21T12:58:27;98577.78;;;15.59;59.59
27864;BME280;15980;51.092;13.916;2023-03-21T13:28:56;98552.94;;;16.37;57.86
27864;BME280;15980;51.092;13.916;2023-03-21T13:39:02;98534.97;;;16.16;58.76
27864;BME280;15980;51.092;13.916;2023-03-21T13:59:09;98522.16;;;16.45;59.02
27864;BME280;15980;51.092;13.916;2023-03-21T14:09:20;98516.38;;;16.64;58.43
27864;BME280;15980;51.092;13.916;2023-03-21T14:19:28;98497.47;;;16.74;59.36
27864;BME280;15980;51.092;13.916;2023-03-21T14:29:31;98487.41;;;16.51;58.76
27864;BME280;15980;51.092;13.916;2023-03-21T14:39:32;98478.78;;;16.63;58.87
27864;BME280;15980;51.092;13.916;2023-03-21T14:49:35;98474.47;;;16.66;59.92
27864;BME280;15980;51.092;13.916;2023-03-21T14:59:37;98453.84;;;16.63;60.04
27864;BME280;15980;51.092;13.916;2023-03-21T15:09:38;98439.59;;;16.61;60.14
27864;BME280;15980;51.092;13.916;2023-03-21T15:19:39;98435.38;;;16.23;61.76
27864;BME280;15980;51.092;13.916;2023-03-21T15:29:39;98429.19;;;15.93;64.11
27864;BME280;15980;51.092;13.916;2023-03-21T15:39:40;98434.47;;;15.64;65.48
27864;BME280;15980;51.092;13.916;2023-03-21T15:49:40;98429.88;;;15.46;66.21
27864;BME280;15980;51.092;13.916;2023-03-21T15:59:41;98427.22;;;15.19;67.63
27864;BME280;15980;51.092;13.916;2023-03-21T16:09:44;98421.63;;;14.82;69.76
27864;BME280;15980;51.092;13.916;2023-03-21T16:19:45;98407.16;;;14.62;70.82
27864;BME280;15980;51.092;13.916;2023-03-21T16:29:45;98408.09;;;14.43;71.76
27864;BME280;15980;51.092;13.916;2023-03-21T16:39:46;98421.09;;;14.20;72.83
27864;BME280;15980;51.092;13.916;2023-03-21T16:49:47;98418.91;;;13.83;73.96
27864;BME280;15980;51.092;13.916;2023-03-21T16:59:47;98422.78;;;13.56;75.35
27864;BME280;15980;51.092;13.916;2023-03-21T17:09:48;98409.41;;;13.35;76.30
27864;BME280;15980;51.092;13.916;2023-03-21T17:19:48;98410.94;;;13.13;76.52
27864;BME280;15980;51.092;13.916;2023-03-21T17:29:48;98413.25;;;12.92;78.50
27864;BME280;15980;51.092;13.916;2023-03-21T17:39:49;98399.94;;;12.75;79.36
27864;BME280;15980;51.092;13.916;2023-03-21T17:49:52;98407.00;;;12.56;80.18
27864;BME280;15980;51.092;13.916;2023-03-21T17:59:52;98409.06;;;12.44;80.46
27864;BME280;15980;51.092;13.916;2023-03-21T18:09:53;98390.75;;;12.32;79.76
27864;BME280;15980;51.092;13.916;2023-03-21T18:19:53;98388.56;;;12.22;79.95
27864;BME280;15980;51.092;13.916;2023-03-21T18:29:53;98386.19;;;12.05;81.38
27864;BME280;15980;51.092;13.916;2023-03-21T18:39:54;98387.16;;;11.97;80.89
27864;BME280;15980;51.092;13.916;2023-03-21T18:49:54;98398.53;;;11.95;80.45
27864;BME280;15980;51.092;13.916;2023-03-21T18:59:55;98378.13;;;11.96;79.69
27864;BME280;15980;51.092;13.916;2023-03-21T19:09:58;98392.84;;;11.88;78.48
27864;BME280;15980;51.092;13.916;2023-03-21T19:19:58;98391.50;;;11.66;79.02
27864;BME280;15980;51.092;13.916;2023-03-21T19:29:59;98396.19;;;11.34;79.72
27864;BME280;15980;51.092;13.916;2023-03-21T19:39:59;98395.94;;;11.11;81.38
27864;BME280;15980;51.092;13.916;2023-03-21T19:49:59;98400.19;;;11.09;81.31
27864;BME280;15980;51.092;13.916;2023-03-21T20:00:00;98410.53;;;10.99;81.25
27864;BME280;15980;51.092;13.916;2023-03-21T20:10:00;98389.13;;;11.05;81.44
27864;BME280;15980;51.092;13.916;2023-03-21T20:20:00;98402.31;;;11.15;81.33
27864;BME280;15980;51.092;13.916;2023-03-21T20:30:04;98394.72;;;11.24;81.15
27864;BME280;15980;51.092;13.916;2023-03-21T20:40:06;98391.34;;;11.15;81.23
27864;BME280;15980;51.092;13.916;2023-03-21T20:50:08;98391.69;;;11.14;80.75
27864;BME280;15980;51.092;13.916;2023-03-21T21:00:10;98394.53;;;11.17;80.38
27864;BME280;15980;51.092;13.916;2023-03-21T21:10:14;98394.59;;;11.05;80.41
27864;BME280;15980;51.092;13.916;2023-03-21T21:20:14;98390.88;;;10.97;80.70
27864;BME280;15980;51.092;13.916;2023-03-21T21:30:15;98404.78;;;11.05;80.51
27864;BME280;15980;51.092;13.916;2023-03-21T21:40:15;98414.88;;;11.00;81.07
27864;BME280;15980;51.092;13.916;2023-03-21T21:50:15;98419.16;;;11.57;76.80
27864;BME280;15980;51.092;13.916;2023-03-21T22:00:17;98419.84;;;11.70;76.42
27864;BME280;15980;51.092;13.916;2023-03-21T22:10:21;98430.06;;;11.70;77.13
27864;BME280;15980;51.092;13.916;2023-03-21T22:20:21;98427.66;;;11.68;77.66
27864;BME280;15980;51.092;13.916;2023-03-21T22:30:22;98437.94;;;11.55;80.06
27864;BME280;15980;51.092;13.916;2023-03-21T22:40:22;98441.03;;;11.38;83.85
27864;BME280;15980;51.092;13.916;2023-03-21T22:50:22;98425.84;;;11.28;87.16
27864;BME280;15980;51.092;13.916;2023-03-21T23:00:23;98437.41;;;11.22;89.31
27864;BME280;15980;51.092;13.916;2023-03-21T23:10:23;98416.06;;;11.15;91.03
27864;BME280;15980;51.092;13.916;2023-03-21T23:20:23;98414.00;;;11.12;92.11
27864;BME280;15980;51.092;13.916;2023-03-21T23:30:24;98400.78;;;11.02;92.69
27864;BME280;15980;51.092;13.916;2023-03-21T23:40:25;98395.47;;;10.93;93.55
27864;BME280;15980;51.092;13.916;2023-03-21T23:50:25;98397.31;;;10.89;93.96
